createdAt,value
2023-05-25T00:00:06.403Z,152579.25
2023-05-25T00:02:08.069Z,152576.72
2023-05-25T00:04:09.848Z,152569.09
2023-05-25T00:06:11.894Z,152517.16
2023-05-25T00:08:13.632Z,152556.44
2023-05-25T00:10:15.072Z,152585.63
2023-05-25T00:12:16.730Z,152578.00
2023-05-25T00:14:19.167Z,152522.25
2023-05-25T00:16:20.728Z,152565.34
2023-05-25T00:18:22.397Z,152572.91
2023-05-25T00:20:24.040Z,152575.44
2023-05-25T00:22:25.522Z,152543.78
2023-05-25T00:24:27.154Z,152580.53
2023-05-25T00:26:28.684Z,152586.88
2023-05-25T00:28:30.136Z,152598.28
2023-05-25T00:30:31.783Z,152593.19
2023-05-25T00:32:33.497Z,152564.06
2023-05-25T00:34:34.974Z,152599.53
2023-05-25T00:36:36.571Z,152553.91
2023-05-25T00:38:38.240Z,152614.78
2023-05-25T00:40:40.979Z,152624.94
2023-05-25T00:42:44.001Z,152576.72
2023-05-25T00:44:45.575Z,152505.78
2023-05-25T00:46:52.377Z,152604.66
2023-05-25T00:48:55.350Z,152545.06
2023-05-25T00:50:57.082Z,152541.25
2023-05-25T00:52:58.576Z,152541.25
2023-05-25T00:55:02.345Z,152561.53
2023-05-25T00:57:06.842Z,152561.53
2023-05-25T00:59:11.926Z,152560.25
2023-05-25T01:01:15.438Z,152564.06
2023-05-25T01:03:21.123Z,152584.34
2023-05-25T01:05:25.453Z,152565.34
2023-05-25T01:07:27.521Z,152574.19
2023-05-25T01:09:30.851Z,152551.34
2023-05-25T01:11:37.203Z,152517.16
2023-05-25T01:13:39.191Z,152551.34
2023-05-25T01:15:41.534Z,152542.53
2023-05-25T01:17:43.190Z,152522.25
2023-05-25T01:19:47.571Z,152569.09
2023-05-25T01:22:05.744Z,152553.91
2023-05-25T01:24:26.489Z,152578.00
2023-05-25T01:26:31.977Z,152504.50
2023-05-25T01:28:40.890Z,152509.53
2023-05-25T01:30:45.800Z,152531.09
2023-05-25T01:32:49.292Z,152488.00
2023-05-25T01:34:52.365Z,152529.81
2023-05-25T01:36:54.040Z,152519.69
2023-05-25T01:38:55.669Z,152507.03
2023-05-25T01:40:57.307Z,152517.16
2023-05-25T01:42:58.782Z,152518.44
2023-05-25T01:45:00.475Z,152496.88
2023-05-25T01:47:31.276Z,152524.78
2023-05-25T01:49:40.924Z,152523.50
2023-05-25T01:51:55.114Z,152552.63
2023-05-25T01:54:03.251Z,152558.97
2023-05-25T01:56:09.539Z,152553.91
2023-05-25T01:58:14.692Z,152564.06
2023-05-25T02:00:18.724Z,152543.78
2023-05-25T02:02:20.827Z,152532.34
2023-05-25T02:04:22.862Z,152470.25
2023-05-25T02:06:24.442Z,152498.16
2023-05-25T02:08:25.887Z,152501.97
2023-05-25T02:10:27.404Z,152527.31
2023-05-25T02:12:29.462Z,152519.69
2023-05-25T02:14:30.918Z,152505.78
2023-05-25T02:16:32.770Z,152484.22
2023-05-25T02:18:34.430Z,152504.50
2023-05-25T02:20:36.946Z,152518.44
2023-05-25T02:22:38.518Z,152461.41
2023-05-25T02:24:40.399Z,152517.16
2023-05-25T02:26:41.842Z,152481.69
2023-05-25T02:28:43.380Z,152439.88
2023-05-25T02:30:45.004Z,152537.44
2023-05-25T02:32:46.498Z,152501.97
2023-05-25T02:34:48.156Z,152499.44
2023-05-25T02:36:49.699Z,152476.63
2023-05-25T02:38:51.126Z,152533.63
2023-05-25T02:40:52.886Z,152474.06
2023-05-25T02:42:54.828Z,152529.81
2023-05-25T02:44:56.310Z,152488.00
2023-05-25T02:46:58.136Z,152514.63
2023-05-25T02:49:00.157Z,152545.06
2023-05-25T02:51:01.596Z,152495.63
2023-05-25T02:53:03.742Z,152507.03
2023-05-25T02:55:05.815Z,152518.44
2023-05-25T02:57:07.330Z,152505.78
2023-05-25T02:59:08.958Z,152486.72
2023-05-25T03:01:10.909Z,152470.25
2023-05-25T03:03:12.708Z,152490.53
2023-05-25T03:05:15.738Z,152523.50
2023-05-25T03:07:17.573Z,152526.06
2023-05-25T03:09:19.309Z,152510.81
2023-05-25T03:11:20.887Z,152501.97
2023-05-25T03:13:22.519Z,152443.69
2023-05-25T03:15:23.993Z,152484.22
2023-05-25T03:17:25.638Z,152546.31
2023-05-25T03:19:27.325Z,152533.63
2023-05-25T03:21:28.971Z,152528.53
2023-05-25T03:23:30.492Z,152537.44
2023-05-25T03:25:31.947Z,152505.78
2023-05-25T03:27:33.373Z,152527.31
2023-05-25T03:29:34.978Z,152512.09
2023-05-25T03:31:36.536Z,152552.63
2023-05-25T03:33:38.385Z,152542.53
2023-05-25T03:35:40.208Z,152531.09
2023-05-25T03:37:41.888Z,152548.81
2023-05-25T03:39:43.330Z,152531.09
2023-05-25T03:41:44.918Z,152560.25
2023-05-25T03:43:46.428Z,152589.41
2023-05-25T03:45:47.976Z,152583.06
2023-05-25T03:47:49.649Z,152533.63
2023-05-25T03:49:51.189Z,152593.19
2023-05-25T03:51:52.639Z,152607.22
2023-05-25T03:53:54.222Z,152583.06
2023-05-25T03:55:55.806Z,152619.88
2023-05-25T03:57:57.240Z,152594.47
2023-05-25T03:59:58.828Z,152523.50
2023-05-25T04:02:00.459Z,152518.44
2023-05-25T04:04:01.950Z,152586.88
2023-05-25T04:06:04.079Z,152532.34
2023-05-25T04:08:05.685Z,152598.28
2023-05-25T04:10:07.857Z,152624.94
2023-05-25T04:12:09.384Z,152671.88
2023-05-25T04:14:11.413Z,152584.34
2023-05-25T04:16:13.065Z,152583.06
2023-05-25T04:18:14.798Z,152630.03
2023-05-25T04:20:16.438Z,152619.88
2023-05-25T04:22:18.488Z,152631.25
2023-05-25T04:24:21.452Z,152584.34
2023-05-25T04:26:23.201Z,152618.59
2023-05-25T04:28:24.647Z,152604.66
2023-05-25T04:30:26.211Z,152597.00
2023-05-25T04:32:27.840Z,152638.88
2023-05-25T04:34:29.332Z,152668.06
2023-05-25T04:36:31.061Z,152597.00
2023-05-25T04:38:32.803Z,152643.97
2023-05-25T04:40:34.750Z,152641.41
2023-05-25T04:42:36.269Z,152617.34
2023-05-25T04:44:37.840Z,152613.53
2023-05-25T04:46:39.496Z,152591.91
2023-05-25T04:48:41.223Z,152602.09
2023-05-25T04:50:43.085Z,152565.34
2023-05-25T04:52:44.565Z,152608.47
2023-05-25T04:54:46.101Z,152602.09
2023-05-25T04:56:47.748Z,152619.88
2023-05-25T04:58:49.257Z,152652.81
2023-05-25T05:00:52.588Z,152665.50
2023-05-25T05:02:55.764Z,152685.81
2023-05-25T05:04:57.508Z,152642.69
2023-05-25T05:06:59.258Z,152613.53
2023-05-25T05:09:01.366Z,152622.41
2023-05-25T05:11:02.880Z,152569.09
2023-05-25T05:13:04.713Z,152627.50
2023-05-25T05:15:06.735Z,152659.16
2023-05-25T05:17:08.178Z,152631.25
2023-05-25T05:19:09.777Z,152565.34
2023-05-25T05:21:11.513Z,152662.97
2023-05-25T05:23:13.658Z,152695.91
2023-05-25T05:25:15.243Z,152682.00
2023-05-25T05:27:17.115Z,152689.59
2023-05-25T05:29:18.539Z,152665.50
2023-05-25T05:31:21.099Z,152688.34
2023-05-25T05:33:22.869Z,152685.81
2023-05-25T05:35:24.345Z,152630.03
2023-05-25T05:37:25.938Z,152684.53
2023-05-25T05:39:28.435Z,152687.06
2023-05-25T05:41:30.000Z,152642.69
2023-05-25T05:43:31.732Z,152730.19
2023-05-25T05:45:33.477Z,152657.88
2023-05-25T05:47:34.945Z,152754.28
2023-05-25T05:49:36.596Z,152728.91
2023-05-25T05:51:38.563Z,152731.47
2023-05-25T05:53:39.993Z,152751.75
2023-05-25T05:55:41.692Z,152745.38
2023-05-25T05:57:43.287Z,152811.34
2023-05-25T05:59:44.757Z,152853.19
2023-05-25T06:01:46.328Z,152770.75
2023-05-25T06:03:48.799Z,152728.91
2023-05-25T06:05:50.450Z,152792.31
2023-05-25T06:07:51.995Z,152732.72
2023-05-25T06:09:53.522Z,152758.06
2023-05-25T06:11:55.033Z,152732.72
2023-05-25T06:13:56.562Z,152794.88
2023-05-25T06:15:58.201Z,152825.28
2023-05-25T06:17:59.684Z,152829.09
2023-05-25T06:20:01.981Z,152805.00
2023-05-25T06:22:03.655Z,152860.78
2023-05-25T06:24:05.591Z,152903.97
2023-05-25T06:26:07.270Z,152889.97
2023-05-25T06:28:08.905Z,152919.22
2023-05-25T06:30:10.915Z,152901.41
2023-05-25T06:32:12.540Z,152898.94
2023-05-25T06:34:14.072Z,152924.25
2023-05-25T06:36:16.003Z,152966.13
2023-05-25T06:38:17.661Z,152963.59
2023-05-25T06:40:19.341Z,153056.25
2023-05-25T06:42:20.774Z,153120.97
2023-05-25T06:44:22.319Z,153142.56
2023-05-25T06:46:24.049Z,153251.78
2023-05-25T06:48:25.559Z,153320.38
2023-05-25T06:50:27.092Z,153221.31
2023-05-25T06:52:28.636Z,153415.66
2023-05-25T06:54:30.079Z,153554.19
2023-05-25T06:56:31.628Z,153585.94
2023-05-25T06:58:33.320Z,153509.72
2023-05-25T07:00:34.754Z,153513.53
2023-05-25T07:02:36.270Z,153480.47
2023-05-25T07:04:38.159Z,153432.22
2023-05-25T07:06:39.722Z,153524.94
2023-05-25T07:08:41.180Z,153408.00
2023-05-25T07:10:43.011Z,153722.03
2023-05-25T07:12:44.469Z,153757.63
2023-05-25T07:14:45.981Z,153736.00
2023-05-25T07:16:47.696Z,153775.41
2023-05-25T07:18:49.189Z,153938.25
2023-05-25T07:20:50.698Z,154008.25
2023-05-25T07:22:52.410Z,154036.22
2023-05-25T07:24:53.977Z,154068.06
2023-05-25T07:26:55.401Z,154043.88
2023-05-25T07:28:56.939Z,153930.66
2023-05-25T07:30:58.447Z,153943.34
2023-05-25T07:33:00.070Z,153905.22
2023-05-25T07:35:01.788Z,154112.66
2023-05-25T07:37:03.406Z,154310.00
2023-05-25T07:39:05.200Z,154406.81
2023-05-25T07:41:07.317Z,154141.91
2023-05-25T07:43:08.976Z,154160.97
2023-05-25T07:45:11.109Z,154445.03
2023-05-25T07:47:12.837Z,154571.19
2023-05-25T07:49:14.409Z,154567.38
2023-05-25T07:51:16.173Z,154345.63
2023-05-25T07:53:17.803Z,154336.75
2023-05-25T07:55:19.520Z,154419.53
2023-05-25T07:57:20.976Z,154093.53
2023-05-25T07:59:22.639Z,154013.34
2023-05-25T08:01:26.259Z,154295.97
2023-05-25T08:03:39.579Z,154334.19
2023-05-25T08:05:50.140Z,154060.41
2023-05-25T08:07:51.670Z,154175.03
2023-05-25T08:09:53.180Z,154437.38
2023-05-25T08:12:07.830Z,154575.00
2023-05-25T08:14:16.750Z,154567.38
2023-05-25T08:16:19.047Z,154239.94
2023-05-25T08:18:20.852Z,154295.97
2023-05-25T08:20:22.486Z,154538.03
2023-05-25T08:22:24.215Z,154401.72
2023-05-25T08:24:25.793Z,154195.38
2023-05-25T08:26:38.415Z,154397.88
2023-05-25T08:28:49.365Z,154416.97
2023-05-25T08:30:51.452Z,154530.44
2023-05-25T08:32:52.984Z,154654.03
2023-05-25T08:34:54.676Z,154564.81
2023-05-25T08:36:59.265Z,154562.25
2023-05-25T08:39:00.792Z,154550.81
2023-05-25T08:41:06.689Z,154460.31
2023-05-25T08:43:09.724Z,154498.50
2023-05-25T08:45:22.616Z,154457.75
2023-05-25T08:47:31.989Z,154462.84
2023-05-25T08:49:38.678Z,154460.31
2023-05-25T08:51:55.295Z,154459.03
2023-05-25T08:54:00.913Z,154648.94
2023-05-25T08:56:20.193Z,154671.88
2023-05-25T08:58:32.695Z,154608.16
2023-05-25T09:00:44.348Z,154703.75
2023-05-25T09:03:06.961Z,154847.81
2023-05-25T09:05:09.296Z,154967.72
2023-05-25T09:07:11.421Z,154827.41
2023-05-25T09:09:13.335Z,154909.06
2023-05-25T09:11:17.346Z,154781.50
2023-05-25T09:13:22.832Z,154897.63
2023-05-25T09:15:24.892Z,154958.84
2023-05-25T09:17:26.637Z,154814.69
2023-05-25T09:19:28.375Z,154845.25
2023-05-25T09:21:30.036Z,154785.34
2023-05-25T09:23:32.287Z,154861.88
2023-05-25T09:25:33.819Z,154794.28
2023-05-25T09:27:36.327Z,154896.34
2023-05-25T09:29:38.045Z,154865.66
2023-05-25T09:31:39.585Z,154916.75
2023-05-25T09:33:41.339Z,154696.09
2023-05-25T09:35:43.997Z,154742.00
2023-05-25T09:37:45.669Z,154800.69
2023-05-25T09:39:47.977Z,154708.88
2023-05-25T09:41:49.610Z,154886.06
2023-05-25T09:45:56.233Z,155018.78
2023-05-25T09:47:58.639Z,154946.09
2023-05-25T09:50:00.405Z,154770.06
2023-05-25T09:52:02.308Z,154779.00
2023-05-25T09:54:04.787Z,154836.38
2023-05-25T09:56:06.478Z,154818.53
2023-05-25T09:58:07.965Z,154771.34
2023-05-25T10:00:09.876Z,154821.06
2023-05-25T10:02:12.088Z,154712.69
2023-05-25T10:04:16.436Z,154643.81
2023-05-25T10:06:18.400Z,154603.03
2023-05-25T10:08:20.484Z,154547.00
2023-05-25T10:10:22.373Z,154443.75
2023-05-25T10:12:24.801Z,154628.53
2023-05-25T10:16:53.215Z,154550.81
2023-05-25T10:19:01.343Z,154462.84
2023-05-25T10:21:04.701Z,154766.22
2023-05-25T10:23:16.897Z,154814.69
2023-05-25T10:25:39.899Z,154831.25
2023-05-25T10:27:46.899Z,154730.53
2023-05-25T10:29:48.828Z,154625.97
2023-05-25T10:31:51.226Z,154475.56
2023-05-25T10:33:53.161Z,154524.03
2023-05-25T10:36:03.004Z,154618.31
2023-05-25T10:38:12.269Z,154766.22
2023-05-25T10:40:14.272Z,154828.69
2023-05-25T10:42:18.850Z,154781.50
2023-05-25T10:44:21.145Z,154717.81
2023-05-25T10:46:22.838Z,154736.94
2023-05-25T10:48:35.703Z,154642.53
2023-05-25T10:50:37.337Z,154728.00
2023-05-25T10:52:38.992Z,154858.03
2023-05-25T10:54:40.657Z,154786.63
2023-05-25T10:57:08.752Z,154666.75
2023-05-25T10:59:13.101Z,154634.94
2023-05-25T11:01:16.168Z,154753.50
2023-05-25T11:03:17.752Z,154753.50
2023-05-25T11:05:28.265Z,154777.72
2023-05-25T11:07:29.797Z,154901.44
2023-05-25T11:09:31.553Z,154804.47
2023-05-25T11:11:42.408Z,154893.78
2023-05-25T11:13:46.577Z,154869.50
2023-05-25T11:16:07.350Z,154909.06
2023-05-25T11:18:14.674Z,154780.28
2023-05-25T11:20:23.380Z,154750.94
2023-05-25T11:22:33.079Z,154799.41
2023-05-25T11:24:34.722Z,154733.09
2023-05-25T11:26:36.466Z,154615.75
2023-05-25T11:28:46.307Z,154735.66
2023-05-25T11:30:47.936Z,154748.38
2023-05-25T11:32:49.938Z,154781.50
2023-05-25T11:34:55.741Z,154717.81
2023-05-25T11:36:58.468Z,154800.69
2023-05-25T11:39:11.458Z,154736.94
2023-05-25T11:41:16.613Z,154795.56
2023-05-25T11:43:19.431Z,154962.66
2023-05-25T11:45:22.728Z,154990.69
2023-05-25T11:47:24.298Z,154858.03
2023-05-25T11:49:26.098Z,154860.59
2023-05-25T11:51:29.808Z,154965.22
2023-05-25T11:53:32.431Z,155039.19
2023-05-25T11:55:34.196Z,155062.16
2023-05-25T11:57:35.810Z,155062.16
2023-05-25T11:59:37.288Z,155048.13
2023-05-25T12:01:38.823Z,154907.78
2023-05-25T12:03:40.825Z,155054.47
2023-05-25T12:05:42.951Z,154962.66
2023-05-25T12:07:45.388Z,154967.72
2023-05-25T12:09:47.539Z,155051.91
2023-05-25T12:11:49.194Z,155074.94
2023-05-25T12:13:51.387Z,155080.06
2023-05-25T12:15:56.086Z,155137.47
2023-05-25T12:17:57.618Z,155164.28
2023-05-25T12:19:59.342Z,155205.09
2023-05-25T12:22:01.022Z,155140.00
2023-05-25T12:24:02.540Z,155106.84
2023-05-25T12:26:11.798Z,155057.03
2023-05-25T12:28:14.658Z,155045.56
2023-05-25T12:30:16.101Z,154983.06
2023-05-25T12:32:17.718Z,154974.13
2023-05-25T12:34:20.463Z,155021.31
2023-05-25T12:36:48.931Z,155113.22
2023-05-25T12:38:59.716Z,155095.34
2023-05-25T12:41:05.761Z,155041.75
2023-05-25T12:43:07.374Z,155068.59
2023-05-25T12:45:11.045Z,155017.50
2023-05-25T12:47:22.998Z,155068.59
2023-05-25T12:49:34.238Z,155008.53
2023-05-25T12:51:39.027Z,155087.72
2023-05-25T12:53:50.832Z,155095.34
2023-05-25T12:56:04.035Z,154988.13
2023-05-25T12:58:07.183Z,155077.50
2023-05-25T13:00:09.359Z,155043.03
2023-05-25T13:02:12.354Z,155086.44
2023-05-25T13:04:14.040Z,155146.41
2023-05-25T13:06:15.507Z,155198.72
2023-05-25T13:08:16.974Z,155086.44
2023-05-25T13:10:18.764Z,155094.06
2023-05-25T13:12:20.386Z,155060.88
2023-05-25T13:14:23.160Z,155027.72
2023-05-25T13:16:24.653Z,155120.88
2023-05-25T13:18:26.335Z,155183.41
2023-05-25T13:20:28.283Z,155240.81
2023-05-25T13:22:30.108Z,155189.81
2023-05-25T13:24:31.538Z,155201.25
2023-05-25T13:26:32.983Z,155299.56
2023-05-25T13:28:34.498Z,155239.53
2023-05-25T13:30:36.020Z,155309.81
2023-05-25T13:32:37.924Z,155312.38
2023-05-25T13:34:39.405Z,155353.22
2023-05-25T13:36:40.967Z,155377.47
2023-05-25T13:38:42.432Z,155257.44
2023-05-25T13:40:44.390Z,155281.72
2023-05-25T13:42:46.330Z,155238.25
2023-05-25T13:44:48.200Z,155288.09
2023-05-25T13:46:49.804Z,155350.66
2023-05-25T13:48:51.404Z,155337.91
2023-05-25T13:50:52.847Z,155391.50
2023-05-25T13:52:54.593Z,155399.19
2023-05-25T13:54:56.214Z,155394.06
2023-05-25T13:56:57.743Z,155394.06
2023-05-25T13:58:59.376Z,155394.06
2023-05-25T14:01:01.116Z,155378.75
2023-05-25T14:03:02.674Z,155362.13
2023-05-25T14:05:04.460Z,155350.66
2023-05-25T14:07:06.282Z,155437.53
2023-05-25T14:09:08.376Z,155414.50
2023-05-25T14:11:09.837Z,155388.94
2023-05-25T14:13:11.391Z,155388.94
2023-05-25T14:15:12.880Z,155372.38
2023-05-25T14:17:14.377Z,155378.75
2023-05-25T14:19:15.970Z,155351.94
2023-05-25T14:21:17.526Z,155437.53
2023-05-25T14:23:19.217Z,155434.97
2023-05-25T14:25:21.319Z,155424.72
2023-05-25T14:27:25.230Z,155336.63
2023-05-25T14:29:26.662Z,155147.69
2023-05-25T14:31:28.233Z,155175.72
2023-05-25T14:33:29.844Z,155173.22
2023-05-25T14:35:31.542Z,155251.09
2023-05-25T14:37:33.174Z,155214.06
2023-05-25T14:39:34.836Z,155199.97
2023-05-25T14:41:36.480Z,155168.09
2023-05-25T14:43:38.338Z,155026.44
2023-05-25T14:45:39.849Z,155021.31
2023-05-25T14:47:41.299Z,154932.03
2023-05-25T14:49:42.921Z,154946.09
2023-05-25T14:51:44.534Z,154961.38
2023-05-25T14:53:45.984Z,154985.63
2023-05-25T14:55:47.610Z,155077.50
2023-05-25T14:57:49.065Z,155157.88
2023-05-25T14:59:50.539Z,155189.81
2023-05-25T15:01:52.152Z,155171.94
2023-05-25T15:03:53.790Z,155103.03
2023-05-25T15:05:55.431Z,155041.75
2023-05-25T15:07:57.087Z,154976.69
2023-05-25T15:09:58.520Z,155036.63
2023-05-25T15:12:00.286Z,155166.81
2023-05-25T15:14:02.039Z,155197.44
2023-05-25T15:16:03.727Z,155201.25
2023-05-25T15:18:05.755Z,155240.81
2023-05-25T15:20:07.833Z,155215.34
2023-05-25T15:22:09.301Z,155293.22
2023-05-25T15:24:10.926Z,155274.09
2023-05-25T15:26:12.496Z,155321.28
2023-05-25T15:28:13.945Z,155318.75
2023-05-25T15:30:15.741Z,155295.78
2023-05-25T15:32:17.537Z,155217.84
2023-05-25T15:34:19.651Z,155120.88
2023-05-25T15:36:21.110Z,155103.03
2023-05-25T15:38:22.654Z,155108.13
2023-05-25T15:40:24.180Z,155058.31
2023-05-25T15:42:25.761Z,155081.34
2023-05-25T15:44:27.464Z,155068.59
2023-05-25T15:46:29.093Z,155066.00
2023-05-25T15:48:30.682Z,155037.91
2023-05-25T15:50:32.351Z,155101.75
2023-05-25T15:52:33.836Z,155109.41
2023-05-25T15:54:35.304Z,155180.84
2023-05-25T15:56:37.504Z,155123.44
2023-05-25T15:58:39.053Z,155091.50
2023-05-25T16:00:40.655Z,155064.72
2023-05-25T16:02:42.454Z,154911.63
2023-05-25T16:04:44.013Z,155030.22
2023-05-25T16:06:45.523Z,155023.88
2023-05-25T16:08:47.054Z,154989.41
2023-05-25T16:10:48.574Z,154969.00
2023-05-25T16:12:50.022Z,154882.28
2023-05-25T16:14:52.565Z,154988.13
2023-05-25T16:16:54.129Z,154985.63
2023-05-25T16:18:55.702Z,154935.88
2023-05-25T16:20:57.278Z,155025.16
2023-05-25T16:22:58.795Z,155011.09
2023-05-25T16:25:00.391Z,154975.41
2023-05-25T16:27:02.053Z,154961.38
2023-05-25T16:29:03.629Z,154875.88
2023-05-25T16:31:06.035Z,154911.63
2023-05-25T16:33:07.771Z,154911.63
2023-05-25T16:35:09.464Z,154886.06
2023-05-25T16:37:10.976Z,154942.25
2023-05-25T16:39:12.664Z,154914.19
2023-05-25T16:41:14.097Z,154907.78
2023-05-25T16:43:15.661Z,154975.41
2023-05-25T16:45:17.271Z,154916.75
2023-05-25T16:47:18.745Z,154919.28
2023-05-25T16:49:20.215Z,154935.88
2023-05-25T16:51:22.226Z,154970.28
2023-05-25T16:53:24.570Z,154956.28
2023-05-25T16:55:26.124Z,154863.16
2023-05-25T16:57:27.986Z,154924.41
2023-05-25T16:59:29.464Z,154946.09
2023-05-25T17:01:30.928Z,154842.72
2023-05-25T17:03:32.689Z,154847.81
2023-05-25T17:05:34.316Z,154924.41
2023-05-25T17:07:35.963Z,154923.13
2023-05-25T17:09:37.704Z,154932.03
2023-05-25T17:11:39.162Z,154875.88
2023-05-25T17:13:40.681Z,154836.38
2023-05-25T17:15:42.425Z,154822.31
2023-05-25T17:17:44.152Z,154855.47
2023-05-25T17:19:45.796Z,154865.66
2023-05-25T17:21:47.534Z,154807.03
2023-05-25T17:23:49.230Z,154793.00
2023-05-25T17:25:50.672Z,154804.47
2023-05-25T17:27:52.225Z,154759.84
2023-05-25T17:29:53.695Z,154743.28
2023-05-25T17:31:55.251Z,154661.66
2023-05-25T17:33:57.029Z,154705.03
2023-05-25T17:35:58.568Z,154629.81
2023-05-25T17:38:00.341Z,154619.59
2023-05-25T17:40:01.911Z,154629.81
2023-05-25T17:42:03.432Z,154625.97
2023-05-25T17:44:05.007Z,154610.69
2023-05-25T17:46:07.387Z,154548.25
2023-05-25T17:48:09.014Z,154529.16
2023-05-25T17:50:10.891Z,154467.97
2023-05-25T17:52:13.020Z,154485.78
2023-05-25T17:54:14.507Z,154459.03
2023-05-25T17:56:17.110Z,154409.31
2023-05-25T17:58:18.663Z,154401.72
2023-05-25T18:00:20.542Z,154446.31
2023-05-25T18:02:23.069Z,154425.94
2023-05-25T18:04:25.058Z,154394.06
2023-05-25T18:06:29.079Z,154413.16
2023-05-25T18:08:30.915Z,154391.50
2023-05-25T18:10:32.841Z,154419.53
2023-05-25T18:12:34.293Z,154373.69
2023-05-25T18:14:35.823Z,154385.16
2023-05-25T18:16:37.490Z,154363.50
2023-05-25T18:18:38.986Z,154350.75
2023-05-25T18:20:40.649Z,154332.94
2023-05-25T18:22:42.205Z,154289.56
2023-05-25T18:24:43.665Z,154287.03
2023-05-25T18:26:45.303Z,154288.31
2023-05-25T18:28:46.763Z,154294.69
2023-05-25T18:30:48.232Z,154253.94
2023-05-25T18:32:49.859Z,154279.41
2023-05-25T18:34:51.506Z,154260.31
2023-05-25T18:36:52.939Z,154247.56
2023-05-25T18:38:54.370Z,154237.41
2023-05-25T18:40:56.065Z,154236.13
2023-05-25T18:42:57.742Z,154210.66
2023-05-25T18:44:59.170Z,154213.19
2023-05-25T18:47:00.805Z,154185.19
2023-05-25T18:49:02.250Z,154166.09
2023-05-25T18:51:03.905Z,154107.56
2023-05-25T18:53:05.651Z,154117.72
2023-05-25T18:55:07.624Z,154093.53
2023-05-25T18:57:09.413Z,154034.94
2023-05-25T18:59:10.951Z,154069.34
2023-05-25T19:01:12.511Z,154061.69
2023-05-25T19:03:14.295Z,154029.88
2023-05-25T19:05:15.909Z,154045.16
2023-05-25T19:07:17.396Z,154022.22
2023-05-25T19:09:18.937Z,153999.31
2023-05-25T19:11:21.092Z,154013.34
2023-05-25T19:13:22.586Z,154005.69
2023-05-25T19:15:24.190Z,153936.97
2023-05-25T19:17:25.789Z,153984.06
2023-05-25T19:19:27.238Z,153935.72
2023-05-25T19:21:28.678Z,153931.88
2023-05-25T19:23:30.407Z,153958.63
2023-05-25T19:25:31.846Z,153951.00
2023-05-25T19:27:33.300Z,153944.63
2023-05-25T19:29:34.918Z,153923.00
2023-05-25T19:31:36.448Z,153869.50
2023-05-25T19:33:37.899Z,153891.19
2023-05-25T19:35:39.441Z,153842.84
2023-05-25T19:37:40.883Z,153784.34
2023-05-25T19:39:42.408Z,153699.16
2023-05-25T19:41:44.053Z,153744.94
2023-05-25T19:43:45.503Z,153733.47
2023-05-25T19:45:47.163Z,153711.84
2023-05-25T19:47:49.040Z,153664.78
2023-05-25T19:49:50.529Z,153743.66
2023-05-25T19:51:52.113Z,153744.94
2023-05-25T19:53:53.761Z,153749.97
2023-05-25T19:55:55.203Z,153774.16
2023-05-25T19:57:56.747Z,153772.88
2023-05-25T19:59:58.452Z,153775.41
2023-05-25T20:02:00.080Z,153804.69
2023-05-25T20:04:01.914Z,153785.63
2023-05-25T20:06:03.489Z,153761.44
2023-05-25T20:08:04.979Z,153802.13
2023-05-25T20:10:07.224Z,153809.72
2023-05-25T20:12:08.940Z,153800.84
2023-05-25T20:14:10.564Z,153775.41
2023-05-25T20:16:12.249Z,153775.41
2023-05-25T20:18:13.846Z,153803.41
2023-05-25T20:20:17.805Z,153774.16
2023-05-25T20:22:19.304Z,153760.16
2023-05-25T20:24:20.957Z,153765.28
2023-05-25T20:26:22.416Z,153786.84
2023-05-25T20:28:23.898Z,153762.72
2023-05-25T20:30:25.535Z,153764.00
2023-05-25T20:32:27.035Z,153756.34
2023-05-25T20:34:28.483Z,153753.81
2023-05-25T20:36:30.194Z,153767.78
2023-05-25T20:38:31.617Z,153730.91
2023-05-25T20:40:33.106Z,153664.78
2023-05-25T20:42:34.681Z,153746.16
2023-05-25T20:44:36.148Z,153715.66
2023-05-25T20:46:37.649Z,153718.22
2023-05-25T20:48:40.461Z,153732.19
2023-05-25T20:50:41.988Z,153686.41
2023-05-25T20:52:43.451Z,153729.63
2023-05-25T20:54:45.080Z,153783.06
2023-05-25T20:56:46.630Z,153800.84
2023-05-25T20:58:48.104Z,153808.47
2023-05-25T21:00:49.828Z,153818.66
2023-05-25T21:02:51.410Z,153758.91
2023-05-25T21:04:52.970Z,153811.00
2023-05-25T21:06:54.538Z,153785.63
2023-05-25T21:08:56.029Z,153758.91
2023-05-25T21:10:57.580Z,153738.56
2023-05-25T21:12:59.257Z,153746.16
2023-05-25T21:15:00.872Z,153744.94
2023-05-25T21:17:02.337Z,153737.28
2023-05-25T21:19:03.879Z,153607.53
2023-05-25T21:21:05.478Z,153485.56
2023-05-25T21:23:06.949Z,153494.47
2023-05-25T21:25:09.195Z,153488.09
2023-05-25T21:27:12.066Z,153486.81
2023-05-25T21:29:14.093Z,153423.28
2023-05-25T21:31:15.761Z,153439.81
2023-05-25T21:33:17.234Z,153460.13
2023-05-25T21:35:18.741Z,153442.34
2023-05-25T21:37:20.497Z,153451.25
2023-05-25T21:39:21.942Z,153422.03
2023-05-25T21:41:23.487Z,153402.91
2023-05-25T21:43:28.003Z,153443.63
2023-05-25T21:45:29.467Z,153463.94
2023-05-25T21:47:31.017Z,153494.47
2023-05-25T21:49:33.331Z,153485.56
2023-05-25T21:51:34.860Z,153427.13
2023-05-25T21:53:36.322Z,153432.22
2023-05-25T21:55:37.826Z,153456.31
2023-05-25T21:57:39.353Z,153422.03
2023-05-25T21:59:40.792Z,153415.66
2023-05-25T22:01:42.890Z,153419.47
2023-05-25T22:03:44.481Z,153397.81
2023-05-25T22:05:46.244Z,153427.13
2023-05-25T22:07:47.917Z,153438.53
2023-05-25T22:09:50.048Z,153406.75
2023-05-25T22:11:51.487Z,153450.00
2023-05-25T22:13:52.995Z,153416.94
2023-05-25T22:15:54.441Z,153439.81
2023-05-25T22:17:56.004Z,153390.25
2023-05-25T22:20:07.464Z,153415.66
2023-05-25T22:22:09.990Z,153371.19
2023-05-25T22:24:11.549Z,153396.56
2023-05-25T22:26:13.204Z,153409.28
2023-05-25T22:28:14.796Z,153372.47
2023-05-25T22:30:16.348Z,153333.03
2023-05-25T22:32:17.986Z,153308.94
2023-05-25T22:34:19.549Z,153302.59
2023-05-25T22:36:20.986Z,153301.31
2023-05-25T22:38:22.452Z,153297.50
2023-05-25T22:40:24.016Z,153242.91
2023-05-25T22:42:25.496Z,153253.03
2023-05-25T22:44:26.927Z,153284.81
2023-05-25T22:46:28.639Z,153223.88
2023-05-25T22:48:30.166Z,153194.63
2023-05-25T22:50:31.772Z,153180.69
2023-05-25T22:52:33.474Z,153170.50
2023-05-25T22:54:35.414Z,153146.38
2023-05-25T22:56:37.082Z,153151.44
2023-05-25T22:58:38.553Z,153141.28
2023-05-25T23:00:39.998Z,153066.38
2023-05-25T23:02:41.628Z,153155.25
2023-05-25T23:04:43.409Z,153152.69
2023-05-25T23:06:44.869Z,153156.50
2023-05-25T23:08:46.354Z,153165.47
2023-05-25T23:10:47.921Z,153123.53
2023-05-25T23:12:49.372Z,153128.56
2023-05-25T23:14:51.348Z,153112.06
2023-05-25T23:16:53.088Z,153119.72
2023-05-25T23:18:57.575Z,153122.25
2023-05-25T23:20:59.487Z,153112.06
2023-05-25T23:23:01.047Z,153131.13